createdAt,value
2018-12-21T00:03:52.847Z,100696.27
2018-12-21T00:07:56.336Z,100694.39
2018-12-21T00:11:59.781Z,100700.66
2018-12-21T00:16:03.243Z,100712.71
2018-12-21T00:20:08.424Z,100704.66
2018-12-21T00:24:11.895Z,100712.31
2018-12-21T00:28:15.394Z,100708.17
2018-12-21T00:32:24.119Z,100715.52
2018-12-21T00:36:32.841Z,100695.30
2018-12-21T00:40:41.520Z,100688.81
2018-12-21T00:44:45.012Z,100670.52
2018-12-21T00:48:48.497Z,100679.20
2018-12-21T00:52:52.018Z,100686.45
2018-12-21T00:56:55.499Z,100703.16
2018-12-21T01:00:59.063Z,100709.50
2018-12-21T01:05:02.584Z,100707.21
2018-12-21T01:09:06.824Z,100708.41
2018-12-21T01:13:11.949Z,100710.50
2018-12-21T01:17:16.566Z,100705.27
2018-12-21T01:21:21.148Z,100702.79
2018-12-21T01:25:27.103Z,100716.41
2018-12-21T01:29:30.701Z,100728.44
2018-12-21T01:33:35.219Z,100721.24
2018-12-21T01:37:38.765Z,100705.39
2018-12-21T01:41:43.727Z,100707.08
2018-12-21T01:45:47.281Z,100700.98
2018-12-21T01:49:51.689Z,100691.59
2018-12-21T01:53:55.296Z,100693.67
2018-12-21T01:57:59.180Z,100691.48
2018-12-21T02:02:03.138Z,100691.17
2018-12-21T02:06:08.245Z,100684.39
2018-12-21T02:10:11.648Z,100678.64
2018-12-21T02:14:15.783Z,100673.69
2018-12-21T02:18:19.240Z,100687.09
2018-12-21T02:22:22.789Z,100670.57
2018-12-21T02:26:26.342Z,100656.75
2018-12-21T02:30:29.936Z,100664.20
2018-12-21T02:34:33.403Z,100653.56
2018-12-21T02:38:36.901Z,100655.58
2018-12-21T02:42:40.398Z,100650.42
2018-12-21T02:46:43.920Z,100655.91
2018-12-21T02:50:47.603Z,100647.95
2018-12-21T02:54:51.980Z,100652.84
2018-12-21T02:58:55.693Z,100669.17
2018-12-21T03:02:59.374Z,100650.56
2018-12-21T03:07:02.983Z,100647.47
2018-12-21T03:11:07.516Z,100641.41
2018-12-21T03:15:10.996Z,100633.67
2018-12-21T03:19:14.463Z,100627.52
2018-12-21T03:23:17.974Z,100625.34
2018-12-21T03:27:21.895Z,100622.25
2018-12-21T03:31:25.483Z,100626.13
2018-12-21T03:35:29.059Z,100619.88
2018-12-21T03:39:32.645Z,100616.00
2018-12-21T03:43:38.125Z,100616.52
2018-12-21T03:47:42.318Z,100610.36
2018-12-21T03:51:46.029Z,100621.48
2018-12-21T03:55:49.696Z,100615.64
2018-12-21T03:59:53.147Z,100621.91
2018-12-21T04:03:58.145Z,100614.47
2018-12-21T04:08:03.318Z,100621.61
2018-12-21T04:12:06.803Z,100613.86
2018-12-21T04:16:11.699Z,100627.67
2018-12-21T04:20:15.252Z,100631.55
2018-12-21T04:24:19.705Z,100628.48
2018-12-21T04:28:23.331Z,100624.09
2018-12-21T04:32:27.373Z,100625.02
2018-12-21T04:36:31.309Z,100627.98
2018-12-21T04:40:34.947Z,100629.27
2018-12-21T04:44:38.389Z,100625.50
2018-12-21T04:48:41.863Z,100621.62
2018-12-21T04:52:45.414Z,100617.06
2018-12-21T04:56:48.896Z,100621.05
2018-12-21T05:00:52.484Z,100616.85
2018-12-21T05:04:56.011Z,100640.20
2018-12-21T05:09:00.372Z,100641.23
2018-12-21T05:13:03.853Z,100627.41
2018-12-21T05:17:07.497Z,100625.80
2018-12-21T05:21:11.523Z,100629.02
2018-12-21T05:25:14.951Z,100623.14
2018-12-21T05:29:18.524Z,100620.08
2018-12-21T05:33:22.043Z,100625.88
2018-12-21T05:37:25.529Z,100626.27
2018-12-21T05:41:29.019Z,100625.08
2018-12-21T05:45:32.471Z,100616.34
2018-12-21T05:49:36.083Z,100606.20
2018-12-21T05:53:39.696Z,100600.41
2018-12-21T05:57:43.308Z,100599.13
2018-12-21T06:01:46.772Z,100593.89
2018-12-21T06:05:50.224Z,100593.28
2018-12-21T06:09:53.683Z,100602.33
2018-12-21T06:13:57.157Z,100584.45
2018-12-21T06:18:00.652Z,100581.08
2018-12-21T06:22:04.789Z,100582.63
2018-12-21T06:26:08.722Z,100576.94
2018-12-21T06:30:13.250Z,100575.15
2018-12-21T06:34:16.715Z,100576.56
2018-12-21T06:38:20.419Z,100577.25
2018-12-21T06:42:24.241Z,100586.70
2018-12-21T06:46:27.940Z,100590.37
2018-12-21T06:50:31.554Z,100588.86
2018-12-21T06:54:35.299Z,100582.71
2018-12-21T06:58:38.987Z,100572.37
2018-12-21T07:02:42.492Z,100570.41
2018-12-21T07:06:45.960Z,100578.64
2018-12-21T07:10:49.519Z,100577.34
2018-12-21T07:14:53.000Z,100585.20
2018-12-21T07:18:56.523Z,100560.95
2018-12-21T07:22:59.991Z,100570.09
2018-12-21T07:27:04.719Z,100563.73
2018-12-21T07:31:08.194Z,100549.61
2018-12-21T07:35:14.055Z,100539.74
2018-12-21T07:39:17.808Z,100537.66
2018-12-21T07:43:21.298Z,100531.01
2018-12-21T07:47:24.724Z,100545.54
2018-12-21T07:51:28.216Z,100525.17
2018-12-21T07:55:31.659Z,100520.48
2018-12-21T07:59:35.137Z,100519.88
2018-12-21T08:03:38.600Z,100527.32
2018-12-21T08:07:42.108Z,100523.91
2018-12-21T08:11:45.615Z,100508.91
2018-12-21T08:15:49.124Z,100502.45
2018-12-21T08:19:52.908Z,100501.34
2018-12-21T08:23:56.424Z,100500.33
2018-12-21T08:27:59.861Z,100494.56
2018-12-21T08:32:05.819Z,100494.91
2018-12-21T08:36:09.293Z,100491.41
2018-12-21T08:40:12.723Z,100496.08
2018-12-21T08:44:16.782Z,100493.98
2018-12-21T08:48:20.278Z,100493.48
2018-12-21T08:52:23.774Z,100495.56
2018-12-21T08:56:28.113Z,100488.37
2018-12-21T09:00:31.556Z,100482.25
2018-12-21T09:04:34.997Z,100466.61
2018-12-21T09:08:38.537Z,100472.14
2018-12-21T09:12:42.282Z,100466.80
2018-12-21T09:16:45.866Z,100452.30
2018-12-21T09:20:49.486Z,100463.30
2018-12-21T09:24:53.118Z,100458.83
2018-12-21T09:28:56.636Z,100450.75
2018-12-21T09:33:00.217Z,100445.89
2018-12-21T09:37:04.008Z,100428.66
2018-12-21T09:41:07.692Z,100417.30
2018-12-21T09:45:11.245Z,100404.86
2018-12-21T09:49:14.750Z,100403.41
2018-12-21T09:53:18.222Z,100389.80
2018-12-21T09:57:21.645Z,100394.17
2018-12-21T10:01:25.160Z,100389.16
2018-12-21T10:05:28.622Z,100395.40
2018-12-21T10:09:32.103Z,100375.13
2018-12-21T10:13:35.591Z,100373.92
2018-12-21T10:17:39.113Z,100364.55
2018-12-21T10:21:42.561Z,100359.51
2018-12-21T10:25:46.035Z,100343.96
2018-12-21T10:29:49.531Z,100332.93
2018-12-21T10:33:52.942Z,100323.52
2018-12-21T10:37:56.381Z,100308.64
2018-12-21T10:41:59.852Z,100282.56
2018-12-21T10:46:03.351Z,100291.64
2018-12-21T10:50:09.777Z,100297.86
2018-12-21T10:54:13.216Z,100281.35
2018-12-21T10:58:16.667Z,100274.16
2018-12-21T11:02:20.113Z,100270.61
2018-12-21T11:06:23.509Z,100274.80
2018-12-21T11:10:26.952Z,100263.13
2018-12-21T11:14:30.487Z,100254.66
2018-12-21T11:18:33.900Z,100239.37
2018-12-21T11:22:37.369Z,100233.81
2018-12-21T11:26:40.937Z,100220.44
2018-12-21T11:30:44.601Z,100218.88
2018-12-21T11:34:48.110Z,100208.80
2018-12-21T11:38:51.678Z,100194.16
2018-12-21T11:42:55.188Z,100194.28
2018-12-21T11:46:58.801Z,100179.34
2018-12-21T11:51:03.304Z,100170.77
2018-12-21T11:55:06.911Z,100160.14
2018-12-21T11:59:10.411Z,100152.70
2018-12-21T12:03:13.960Z,100165.78
2018-12-21T12:07:17.674Z,100154.69
2018-12-21T12:11:21.191Z,100148.22
2018-12-21T12:15:24.817Z,100151.16
2018-12-21T12:19:28.302Z,100128.17
2018-12-21T12:23:31.760Z,100119.90
2018-12-21T12:27:35.255Z,100109.15
2018-12-21T12:31:38.802Z,100092.38
2018-12-21T12:35:42.528Z,100084.34
2018-12-21T12:39:46.114Z,100069.31
2018-12-21T12:43:49.885Z,100065.38
2018-12-21T12:47:53.351Z,100068.72
2018-12-21T12:51:56.859Z,100058.35
2018-12-21T12:56:00.306Z,100050.84
2018-12-21T13:00:03.800Z,100043.14
2018-12-21T13:04:07.251Z,100034.67
2018-12-21T13:08:10.733Z,100033.94
2018-12-21T13:12:14.186Z,100013.66
2018-12-21T13:16:17.625Z,100028.13
2018-12-21T13:20:21.092Z,100018.84
2018-12-21T13:24:24.542Z,100016.85
2018-12-21T13:28:27.992Z,100021.97
2018-12-21T13:32:31.399Z,100020.12
2018-12-21T13:36:36.634Z,100008.23
2018-12-21T13:40:40.469Z,100002.97
2018-12-21T13:44:44.247Z,100007.09
2018-12-21T13:48:47.796Z,99999.31
2018-12-21T13:52:51.419Z,99980.42
2018-12-21T13:56:54.942Z,99993.50
2018-12-21T14:00:58.424Z,99990.77
2018-12-21T14:05:01.928Z,99970.16
2018-12-21T14:09:07.756Z,99947.40
2018-12-21T14:13:11.237Z,99949.63
2018-12-21T14:17:14.687Z,99965.50
2018-12-21T14:21:18.132Z,99941.84
2018-12-21T14:25:28.762Z,99943.14
2018-12-21T14:29:27.412Z,99967.78
2018-12-21T14:33:30.869Z,99947.69
2018-12-21T14:37:34.295Z,99942.70
2018-12-21T14:41:37.821Z,99946.52
2018-12-21T14:45:41.294Z,99936.44
2018-12-21T14:49:44.751Z,99930.41
2018-12-21T14:53:48.155Z,99941.72
2018-12-21T14:57:51.603Z,99929.77
2018-12-21T15:01:55.072Z,99945.01
2018-12-21T15:05:58.500Z,99932.20
2018-12-21T15:10:02.011Z,99937.26
2018-12-21T15:14:05.488Z,99951.50
2018-12-21T15:18:09.118Z,99936.67
2018-12-21T15:22:12.561Z,99919.95
2018-12-21T15:26:16.000Z,99888.70
2018-12-21T15:30:19.454Z,99921.31
2018-12-21T15:34:22.913Z,99851.21
2018-12-21T15:38:26.385Z,99849.20
2018-12-21T15:42:30.047Z,99880.60
2018-12-21T15:46:33.600Z,99865.14
2018-12-21T15:50:37.122Z,99877.82
2018-12-21T15:54:40.802Z,99844.92
2018-12-21T15:58:44.222Z,99851.05
2018-12-21T16:02:51.253Z,99862.56
2018-12-21T16:06:54.865Z,99840.70
2018-12-21T16:10:58.369Z,99835.97
2018-12-21T16:15:01.938Z,99820.88
2018-12-21T16:19:05.383Z,99804.31
2018-12-21T16:23:09.314Z,99794.30
2018-12-21T16:27:12.766Z,99843.17
2018-12-21T16:31:16.263Z,99796.34
2018-12-21T16:35:19.804Z,99808.95
2018-12-21T16:39:23.466Z,99806.77
2018-12-21T16:43:27.128Z,99817.99
2018-12-21T16:47:30.646Z,99809.36
2018-12-21T16:51:34.212Z,99881.57
2018-12-21T16:55:37.965Z,99775.47
2018-12-21T16:59:42.072Z,99796.89
2018-12-21T17:03:45.608Z,99792.21
2018-12-21T17:07:49.122Z,99780.34
2018-12-21T17:11:52.596Z,99757.91
2018-12-21T17:15:56.055Z,99753.89
2018-12-21T17:19:59.513Z,99718.92
2018-12-21T17:24:03.019Z,99748.46
2018-12-21T17:28:06.664Z,99765.09
2018-12-21T17:32:10.645Z,99772.16
2018-12-21T17:36:14.143Z,99758.06
2018-12-21T17:40:18.068Z,99735.13
2018-12-21T17:44:21.651Z,99751.03
2018-12-21T17:48:25.258Z,99774.94
2018-12-21T17:52:28.734Z,99772.49
2018-12-21T17:56:32.154Z,99745.84
2018-12-21T18:00:36.560Z,99748.44
2018-12-21T18:04:39.999Z,99737.13
2018-12-21T18:08:43.432Z,99720.64
2018-12-21T18:12:46.977Z,99723.42
2018-12-21T18:16:50.475Z,99723.74
2018-12-21T18:20:54.096Z,99715.56
2018-12-21T18:25:03.328Z,99701.80
2018-12-21T18:29:06.817Z,99704.39
2018-12-21T18:33:12.638Z,99708.34
2018-12-21T18:37:16.137Z,99684.22
2018-12-21T18:41:19.785Z,99695.53
2018-12-21T18:45:23.239Z,99690.54
2018-12-21T18:49:26.818Z,99704.43
2018-12-21T18:53:30.378Z,99700.11
2018-12-21T18:57:33.939Z,99706.12
2018-12-21T19:01:37.436Z,99694.80
2018-12-21T19:05:40.988Z,99696.10
2018-12-21T19:09:44.476Z,99693.08
2018-12-21T19:13:48.230Z,99690.79
2018-12-21T19:17:51.764Z,99678.66
2018-12-21T19:21:55.249Z,99666.23
2018-12-21T19:25:58.691Z,99678.16
2018-12-21T19:30:02.154Z,99678.16
2018-12-21T19:34:05.608Z,99665.98
2018-12-21T19:38:09.146Z,99683.68
2018-12-21T19:42:12.726Z,99645.52
2018-12-21T19:46:16.348Z,99632.00
2018-12-21T19:50:19.984Z,99632.31
2018-12-21T19:54:24.240Z,99621.91
2018-12-21T19:58:27.764Z,99602.83
2018-12-21T20:02:31.211Z,99605.84
2018-12-21T20:06:34.836Z,99590.21
2018-12-21T20:10:38.333Z,99615.13
2018-12-21T20:14:41.862Z,99587.70
2018-12-21T20:18:45.325Z,99596.45
2018-12-21T20:22:48.834Z,99600.43
2018-12-21T20:26:55.532Z,99599.98
2018-12-21T20:31:00.069Z,99580.52
2018-12-21T20:35:03.529Z,99574.41
2018-12-21T20:39:14.308Z,99562.79
2018-12-21T20:43:17.785Z,99553.76
2018-12-21T20:47:21.202Z,99561.16
2018-12-21T20:51:24.686Z,99562.53
2018-12-21T20:55:28.325Z,99559.59
2018-12-21T20:59:31.887Z,99555.38
2018-12-21T21:03:35.491Z,99566.70
2018-12-21T21:07:38.944Z,99585.75
2018-12-21T21:11:42.439Z,99549.21
2018-12-21T21:15:45.901Z,99548.06
2018-12-21T21:19:49.300Z,99563.42
2018-12-21T21:23:52.807Z,99581.20
2018-12-21T21:27:56.440Z,99559.89
2018-12-21T21:32:00.387Z,99590.92
2018-12-21T21:36:04.176Z,99598.27
2018-12-21T21:40:11.299Z,99611.80
2018-12-21T21:44:15.928Z,99607.17
2018-12-21T21:48:19.769Z,99612.03
2018-12-21T21:52:23.436Z,99615.67
2018-12-21T21:56:27.137Z,99597.23
2018-12-21T22:00:32.629Z,99581.69
2018-12-21T22:04:36.268Z,99575.98
2018-12-21T22:08:39.779Z,99561.66
2018-12-21T22:12:43.687Z,99556.78
2018-12-21T22:16:47.688Z,99559.86
2018-12-21T22:20:51.523Z,99568.20
2018-12-21T22:24:55.119Z,99581.30
2018-12-21T22:28:58.749Z,99574.00
2018-12-21T22:33:02.473Z,99576.82
2018-12-21T22:37:06.107Z,99572.23
2018-12-21T22:41:09.890Z,99570.30
2018-12-21T22:45:13.563Z,99567.01
2018-12-21T22:49:17.120Z,99563.22
2018-12-21T22:53:20.696Z,99565.97
2018-12-21T22:57:24.141Z,99552.72
2018-12-21T23:01:27.623Z,99544.22
2018-12-21T23:05:31.105Z,99535.78
2018-12-21T23:09:34.783Z,99535.13
2018-12-21T23:13:38.360Z,99549.19
2018-12-21T23:17:41.856Z,99553.84
2018-12-21T23:21:45.340Z,99552.41
2018-12-21T23:25:48.798Z,99552.66
2018-12-21T23:29:52.289Z,99540.20
2018-12-21T23:33:55.775Z,99526.86
2018-12-21T23:37:59.223Z,99536.06
2018-12-21T23:42:02.920Z,99538.80
2018-12-21T23:46:06.364Z,99536.79
2018-12-21T23:50:09.834Z,99523.45
2018-12-21T23:54:13.952Z,99533.45
2018-12-21T23:58:17.467Z,99521.75
